Авиационная погода в Ивало

Регион: 
Погода METAR: 
EFIV 221750Z 21013KT 170V230 9999 -SHSN BLSN OVC011 M06/M08 Q1006
Время наблюдения
2022-01-22T17:50:00Z
Температура C
-6.0
Точка росы
-8.0
Направление ветра
210
Скорость ветра (узлы)
13
Метео видимость
6.21
Облачность
OVC
Нижняя граница облачности (футы)
1100
Явления погоды
-SHSN BLSN
Условия полета
MVFR
OVC – сплошная облачность;
-SHSN - слабый ливневой снег, BLSN – метель низовая или общая;